Time;durP1;ratioP1;P1;durP2;ratioP2;P2;SDS_P1;SDS_P2;PMS_P1;PMS_P2;Temp;Humidity;BMP_temperature;BMP_pressure;BME280_temperature;BME280_humidity;BME280_pressure;Samples;Min_cycle;Max_cycle;Signal;HPM_P1;HPM_P2
2021/12/11 00:00:35;;;;;;;48.40;12.48;;;;;;;-0.86;100.00;94819.66;20592218;28;20750;-76
2021/12/11 00:21:17;;;;;;;50.17;12.35;;;;;;;-0.91;100.00;94853.44;20439253;28;20050;-75
2021/12/11 00:31:18;;;;;;;35.38;13.25;;;;;;;-0.88;100.00;94878.91;20445663;28;20447;-76
2021/12/11 00:41:21;;;;;;;42.28;13.43;;;;;;;-0.86;100.00;94890.66;20443617;28;20430;-75
2021/12/11 00:51:22;;;;;;;43.10;13.48;;;;;;;-0.87;100.00;94912.47;20459004;28;20458;-75
2021/12/11 01:01:27;;;;;;;43.13;15.88;;;;;;;-0.77;100.00;94940.38;20425579;28;20438;-75
2021/12/11 01:11:33;;;;;;;46.28;16.55;;;;;;;-0.74;100.00;94965.84;20436104;28;20042;-75
2021/12/11 01:31:37;;;;;;;53.90;18.00;;;;;;;-0.74;100.00;95015.25;20460103;28;19953;-75
2021/12/11 01:41:39;;;;;;;54.85;18.58;;;;;;;-0.81;100.00;95046.66;20478854;28;20133;-74
2021/12/11 01:51:47;;;;;;;52.65;17.40;;;;;;;-0.78;100.00;95066.16;20440454;28;20489;-74
2021/12/11 02:02:02;;;;;;;43.95;17.08;;;;;;;-0.83;100.00;95105.91;20413364;28;20229;-75
2021/12/11 02:12:14;;;;;;;51.75;19.15;;;;;;;-0.82;100.00;95127.47;20403051;28;20047;-74
2021/12/11 02:22:20;;;;;;;49.60;17.05;;;;;;;-0.76;100.00;95136.91;20458147;28;20046;-73
2021/12/11 02:32:39;;;;;;;50.35;17.70;;;;;;;-0.78;100.00;95151.97;20464277;28;20053;-73
2021/12/11 02:42:50;;;;;;;52.40;19.08;;;;;;;-0.76;100.00;95168.09;20475135;28;20553;-73
2021/12/11 02:53:03;;;;;;;52.60;19.20;;;;;;;-0.81;100.00;95170.66;20447309;28;20054;-73
2021/12/11 03:03:08;;;;;;;50.47;19.77;;;;;;;-0.88;100.00;95185.63;20487354;28;20105;-73
2021/12/11 03:13:09;;;;;;;51.38;20.20;;;;;;;-0.89;100.00;95205.66;20460672;28;20050;-74
2021/12/11 03:23:10;;;;;;;50.22;19.90;;;;;;;-0.86;100.00;95214.78;20465150;28;20145;-74
2021/12/11 03:33:14;;;;;;;57.10;21.15;;;;;;;-0.84;100.00;95234.31;20454117;28;20523;-74
2021/12/11 03:43:17;;;;;;;53.25;20.73;;;;;;;-0.91;100.00;95241.50;20462746;28;20102;-75
2021/12/11 03:53:18;;;;;;;41.45;18.55;;;;;;;-0.94;100.00;95257.56;20453567;28;20169;-75
2021/12/11 04:03:21;;;;;;;50.67;20.45;;;;;;;-0.83;100.00;95279.31;20454286;28;20055;-75
2021/12/11 04:13:22;;;;;;;56.47;21.02;;;;;;;-0.94;100.00;95304.38;20446776;28;20077;-75
2021/12/11 04:23:23;;;;;;;43.35;18.83;;;;;;;-0.95;100.00;95326.16;20458561;28;20082;-76
2021/12/11 04:33:23;;;;;;;58.47;21.88;;;;;;;-0.83;100.00;95339.88;20459546;28;20050;-75
2021/12/11 04:43:26;;;;;;;46.85;19.02;;;;;;;-0.91;100.00;95350.66;20468882;28;20101;-75
2021/12/11 05:13:36;;;;;;;55.53;20.77;;;;;;;-0.88;100.00;95388.38;20453514;28;20195;-75
2021/12/11 05:23:38;;;;;;;57.92;22.58;;;;;;;-0.85;100.00;95399.13;20481418;28;20039;-75
2021/12/11 05:33:40;;;;;;;70.28;24.58;;;;;;;-0.80;100.00;95421.81;20449205;28;20054;-75
2021/12/11 05:43:41;;;;;;;62.70;23.17;;;;;;;-0.80;100.00;95440.00;20459370;28;20043;-75
2021/12/11 05:53:42;;;;;;;67.03;25.20;;;;;;;-0.82;100.00;95460.25;20489218;28;20047;-75
2021/12/11 06:03:43;;;;;;;70.95;22.08;;;;;;;-0.75;100.00;95481.72;20468776;28;20349;-75
2021/12/11 06:13:45;;;;;;;78.82;23.40;;;;;;;-0.76;100.00;95502.72;20492188;28;20688;-75
2021/12/11 06:23:45;;;;;;;69.53;21.90;;;;;;;-0.67;100.00;95519.56;20496184;28;20495;-75
2021/12/11 06:33:48;;;;;;;92.13;24.30;;;;;;;-0.71;100.00;95523.63;20502146;28;20089;-75
2021/12/11 06:43:49;;;;;;;102.40;26.25;;;;;;;-0.71;100.00;95547.03;20514120;28;20524;-74
2021/12/11 06:53:55;;;;;;;85.18;25.48;;;;;;;-0.66;100.00;95576.50;20503781;28;20062;-75
2021/12/11 07:03:58;;;;;;;108.78;24.83;;;;;;;-0.59;100.00;95583.38;20500549;28;20529;-75
2021/12/11 07:13:58;;;;;;;183.77;28.25;;;;;;;-0.59;100.00;95612.00;20495444;28;20384;-75
2021/12/11 07:23:59;;;;;;;111.18;26.75;;;;;;;-0.55;100.00;95628.72;20502810;28;20043;-75
2021/12/11 07:34:01;;;;;;;121.65;26.90;;;;;;;-0.53;100.00;95647.50;20485982;28;20062;-74
2021/12/11 07:44:02;;;;;;;102.93;27.38;;;;;;;-0.46;100.00;95679.38;20506123;28;20039;-72
2021/12/11 07:54:05;;;;;;;96.07;23.77;;;;;;;-0.32;100.00;95706.72;20494681;28;20047;-75
2021/12/11 08:04:06;;;;;;;68.22;20.52;;;;;;;-0.21;100.00;95718.91;20476143;28;20447;-75
2021/12/11 08:14:06;;;;;;;64.60;20.83;;;;;;;-0.03;100.00;95727.56;20497685;28;20086;-74
2021/12/11 08:24:08;;;;;;;49.05;17.30;;;;;;;-0.09;100.00;95744.13;20459172;28;20046;-74
2021/12/11 08:34:09;;;;;;;52.00;17.50;;;;;;;-0.03;100.00;95769.22;20462227;28;20043;-75
2021/12/11 08:44:13;;;;;;;57.88;20.25;;;;;;;0.17;100.00;95781.84;20473073;28;20036;-75
2021/12/11 08:54:13;;;;;;;47.92;17.20;;;;;;;0.30;100.00;95802.41;20462827;28;20046;-74
2021/12/11 09:04:20;;;;;;;43.67;17.48;;;;;;;0.36;100.00;95816.31;20442673;28;20046;-74
2021/12/11 09:14:24;;;;;;;36.50;15.77;;;;;;;0.55;100.00;95837.75;20496028;28;20054;-74
2021/12/11 09:24:34;;;;;;;46.05;16.27;;;;;;;0.53;100.00;95855.44;20491106;28;20117;-74
2021/12/11 09:34:44;;;;;;;38.05;14.23;;;;;;;0.70;100.00;95868.56;20510304;28;20467;-74
2021/12/11 09:44:55;;;;;;;38.17;14.48;;;;;;;0.92;100.00;95882.50;20520426;28;20062;-74
2021/12/11 09:55:20;;;;;;;32.58;13.18;;;;;;;0.94;100.00;95890.91;20535155;28;20053;-74
2021/12/11 10:05:32;;;;;;;31.10;12.63;;;;;;;0.65;100.00;95917.97;20505527;28;20448;-74
2021/12/11 10:15:35;;;;;;;33.00;13.32;;;;;;;0.98;100.00;95925.09;20498180;28;20130;-74
2021/12/11 10:25:38;;;;;;;27.98;11.18;;;;;;;1.33;100.00;95929.38;20496532;28;20038;-74
2021/12/11 10:35:43;;;;;;;22.27;10.93;;;;;;;1.48;100.00;95941.91;20472244;28;20047;-74
2021/12/11 10:45:45;;;;;;;21.77;9.57;;;;;;;1.48;100.00;95952.34;20459158;28;20061;-74
2021/12/11 10:55:46;;;;;;;24.02;10.73;;;;;;;1.33;100.00;95952.88;20433385;28;20039;-74
2021/12/11 11:05:48;;;;;;;22.27;10.57;;;;;;;1.36;100.00;95968.81;20450092;28;20070;-75
2021/12/11 11:15:50;;;;;;;26.17;10.73;;;;;;;1.30;100.00;95963.75;20434718;28;20376;-75
2021/12/11 11:25:54;;;;;;;35.13;13.40;;;;;;;1.47;100.00;95976.84;20438790;28;20062;-72
2021/12/11 11:35:57;;;;;;;41.28;15.20;;;;;;;1.55;100.00;95985.09;20440222;28;20551;-72
2021/12/11 11:45:57;;;;;;;38.40;14.73;;;;;;;1.57;100.00;96003.09;20437460;28;20046;-72
2021/12/11 11:56:04;;;;;;;46.00;15.35;;;;;;;1.53;100.00;96012.44;20461318;28;20035;-74
2021/12/11 12:06:11;;;;;;;40.78;15.52;;;;;;;1.48;100.00;96030.63;20432515;28;20498;-74
2021/12/11 12:16:13;;;;;;;44.40;16.02;;;;;;;1.32;100.00;96035.56;20475199;28;20070;-74
2021/12/11 12:26:19;;;;;;;39.33;15.23;;;;;;;1.38;100.00;96058.09;20442903;28;20047;-74
2021/12/11 12:36:20;;;;;;;32.95;13.88;;;;;;;1.47;100.00;96076.81;20495999;28;20529;-74
2021/12/11 12:46:34;;;;;;;34.83;14.48;;;;;;;1.44;100.00;96077.28;20498537;28;20550;-74
2021/12/11 12:56:41;;;;;;;32.58;14.93;;;;;;;1.48;100.00;96093.28;20467067;28;20270;-74
2021/12/11 13:06:51;;;;;;;34.92;15.98;;;;;;;1.44;100.00;96087.72;20437047;28;20050;-74
2021/12/11 13:17:03;;;;;;;37.70;15.65;;;;;;;1.61;100.00;96106.03;20451508;28;20086;-74
2021/12/11 13:27:08;;;;;;;34.42;16.90;;;;;;;1.51;100.00;96130.16;20449675;28;20505;-73
2021/12/11 13:37:12;;;;;;;35.72;16.35;;;;;;;1.41;100.00;96137.78;20445527;28;20050;-73
2021/12/11 13:47:18;;;;;;;31.20;14.38;;;;;;;1.46;100.00;96145.69;20492446;28;20731;-75
2021/12/11 13:57:24;;;;;;;26.57;11.97;;;;;;;1.52;100.00;96164.88;20505078;28;20518;-75
2021/12/11 14:07:28;;;;;;;28.40;13.00;;;;;;;1.47;100.00;96172.56;20473626;28;20051;-75
2021/12/11 14:17:28;;;;;;;34.65;11.32;;;;;;;1.42;100.00;96185.53;20535505;28;20109;-75
2021/12/11 14:27:29;;;;;;;24.73;10.85;;;;;;;1.43;100.00;96184.50;20528563;28;20584;-74
2021/12/11 14:37:29;;;;;;;28.60;11.50;;;;;;;1.31;100.00;96200.97;20511299;28;20051;-75
2021/12/11 14:47:30;;;;;;;27.45;11.05;;;;;;;1.15;100.00;96220.72;20491272;28;21990;-75
2021/12/11 14:57:31;;;;;;;29.63;11.32;;;;;;;1.14;100.00;96237.38;20506266;28;20128;-75
2021/12/11 15:07:32;;;;;;;32.88;12.68;;;;;;;1.11;100.00;96248.28;20471358;28;20517;-74
2021/12/11 15:17:32;;;;;;;28.67;12.15;;;;;;;1.03;100.00;96268.69;20453434;28;20095;-75
2021/12/11 15:27:33;;;;;;;28.55;11.23;;;;;;;0.99;100.00;96287.38;20425699;28;20055;-75
2021/12/11 15:37:36;;;;;;;22.48;9.98;;;;;;;0.90;100.00;96308.78;20451392;28;22672;-75
2021/12/11 15:47:38;;;;;;;27.48;9.68;;;;;;;0.70;100.00;96320.31;20483986;28;20046;-75
2021/12/11 15:57:38;;;;;;;24.58;8.50;;;;;;;0.63;100.00;96324.00;20404846;28;20129;-76
2021/12/11 16:07:39;;;;;;;32.10;10.45;;;;;;;0.52;100.00;96343.78;20452248;28;20066;-76
2021/12/11 16:17:39;;;;;;;29.77;10.18;;;;;;;0.55;100.00;96362.41;20427577;28;20620;-75
2021/12/11 16:27:42;;;;;;;28.33;10.02;;;;;;;0.57;100.00;96380.41;20407070;28;20100;-75
2021/12/11 16:37:46;;;;;;;31.75;11.85;;;;;;;0.56;100.00;96395.25;20440735;28;20051;-78
2021/12/11 16:47:48;;;;;;;29.38;11.65;;;;;;;0.58;100.00;96395.84;20463147;28;20046;-75
2021/12/11 16:57:49;;;;;;;28.98;10.48;;;;;;;0.49;100.00;96418.00;20410053;28;20129;-73
2021/12/11 17:07:49;;;;;;;35.13;12.50;;;;;;;0.49;100.00;96427.59;20442102;28;20321;-72
2021/12/11 17:17:50;;;;;;;38.08;12.60;;;;;;;0.49;100.00;96445.84;20448116;28;20320;-73
2021/12/11 17:27:53;;;;;;;35.03;11.90;;;;;;;0.45;100.00;96461.16;20360705;28;20677;-73
2021/12/11 17:37:53;;;;;;;33.08;11.98;;;;;;;0.44;100.00;96475.19;20435375;28;20426;-73
2021/12/11 17:47:58;;;;;;;34.05;12.48;;;;;;;0.31;100.00;96485.75;20463210;28;20134;-74
2021/12/11 17:57:59;;;;;;;38.67;12.90;;;;;;;0.29;100.00;96487.75;20472157;28;20042;-73
2021/12/11 18:08:04;;;;;;;43.83;12.35;;;;;;;0.38;100.00;96502.09;20503034;28;20401;-75
2021/12/11 18:18:14;;;;;;;40.58;11.27;;;;;;;0.35;100.00;96503.31;20509634;28;20044;-73
2021/12/11 18:28:15;;;;;;;35.90;11.98;;;;;;;0.24;100.00;96509.22;20479061;28;20057;-73
2021/12/11 18:38:15;;;;;;;31.45;12.45;;;;;;;0.13;100.00;96508.13;20489829;28;20047;-74
2021/12/11 18:48:18;;;;;;;30.20;11.82;;;;;;;0.15;100.00;96518.34;20504254;28;20058;-74
2021/12/11 18:58:23;;;;;;;33.80;11.52;;;;;;;0.17;100.00;96534.53;20504091;28;20039;-74
2021/12/11 19:08:25;;;;;;;25.65;11.15;;;;;;;0.22;100.00;96531.28;20500444;28;20098;-74
2021/12/11 19:18:26;;;;;;;29.60;10.45;;;;;;;0.19;100.00;96548.16;20468718;28;20375;-74
2021/12/11 19:28:33;;;;;;;21.00;9.57;;;;;;;0.28;100.00;96572.13;20445693;28;20077;-74
2021/12/11 19:38:34;;;;;;;28.75;10.70;;;;;;;0.20;100.00;96581.00;20479756;28;20050;-74
2021/12/11 19:48:35;;;;;;;25.85;11.68;;;;;;;0.25;100.00;96580.38;20485082;28;20055;-72
2021/12/11 19:58:38;;;;;;;34.67;9.80;;;;;;;0.28;100.00;96604.19;20464991;28;20035;-75
2021/12/11 20:08:51;;;;;;;28.80;9.93;;;;;;;0.35;100.00;96597.13;20497670;28;20057;-74
2021/12/11 20:18:57;;;;;;;25.95;9.57;;;;;;;0.30;100.00;96606.59;20459462;28;20133;-74
2021/12/11 20:29:03;;;;;;;24.60;9.05;;;;;;;0.28;100.00;96608.59;20477810;28;20043;-74
2021/12/11 20:39:07;;;;;;;24.90;8.87;;;;;;;0.36;100.00;96595.31;20446751;28;20251;-74
2021/12/11 20:49:09;;;;;;;17.70;9.27;;;;;;;0.35;100.00;96609.38;20500804;28;20331;-74
2021/12/11 20:59:11;;;;;;;33.83;9.10;;;;;;;0.35;100.00;96593.72;20480906;28;20039;-74
2021/12/11 21:09:22;;;;;;;24.35;8.93;;;;;;;0.46;100.00;96613.09;20517224;28;20105;-73
2021/12/11 21:19:32;;;;;;;26.27;10.63;;;;;;;0.39;100.00;96626.16;20502328;28;20078;-73
2021/12/11 21:29:33;;;;;;;30.35;11.98;;;;;;;0.44;100.00;96636.75;20518394;28;20050;-73
2021/12/11 21:50:12;;;;;;;25.80;10.38;;;;;;;0.29;100.00;96659.72;20492912;28;20322;-74
2021/12/11 22:00:18;;;;;;;34.38;12.10;;;;;;;0.24;100.00;96641.28;20490941;28;20104;-74
2021/12/11 22:11:09;;;;;;;33.25;11.63;;;;;;;0.28;100.00;96652.88;20534428;28;20051;-74
2021/12/11 22:21:14;;;;;;;31.58;12.88;;;;;;;0.23;100.00;96652.75;20551811;28;20054;-74
2021/12/11 22:31:24;;;;;;;44.92;14.07;;;;;;;0.28;100.00;96666.72;20491358;28;20104;-74
2021/12/11 22:41:31;;;;;;;27.35;11.73;;;;;;;0.35;100.00;96669.28;20507517;28;20039;-74
2021/12/11 22:51:37;;;;;;;40.97;12.82;;;;;;;0.33;100.00;96659.06;20513369;28;20046;-74
2021/12/11 23:02:06;;;;;;;35.10;13.67;;;;;;;0.32;100.00;96687.94;20529376;28;20126;-74
2021/12/11 23:22:43;;;;;;;39.03;13.55;;;;;;;0.37;100.00;96662.06;20530966;28;20050;-74
2021/12/11 23:32:48;;;;;;;32.47;12.30;;;;;;;0.37;100.00;96662.06;20476113;28;20117;-74
2021/12/11 23:42:57;;;;;;;41.92;14.07;;;;;;;0.35;100.00;96687.53;20481083;28;20030;-74
2021/12/11 23:53:00;;;;;;;39.78;15.18;;;;;;;0.36;100.00;96687.28;20474965;28;20062;-74
